Time;durP1;ratioP1;P1;durP2;ratioP2;P2;SDS_P1;SDS_P2;PMS_P1;PMS_P2;Temp;Humidity;BMP_temperature;BMP_pressure;BME280_temperature;BME280_humidity;BME280_pressure;Samples;Min_cycle;Max_cycle;Signal;HPM_P1;HPM_P2
2022/09/25 00:00:49;;;;;;;15.57;14.07;;;13.50;99.90;;;;;;5066928;28;20455;-82
2022/09/25 00:03:18;;;;;;;14.77;13.47;;;13.50;99.90;;;;;;5055699;28;20990;-82
2022/09/25 00:05:46;;;;;;;14.00;12.77;;;13.50;99.90;;;;;;5067403;28;20452;-81
2022/09/25 00:08:14;;;;;;;15.20;13.83;;;13.50;99.90;;;;;;5056451;28;20453;-82
2022/09/25 00:10:42;;;;;;;14.77;13.37;;;13.50;99.90;;;;;;5058507;28;20452;-82
2022/09/25 00:13:08;;;;;;;12.77;11.57;;;13.50;99.90;;;;;;5073263;28;20480;-82
2022/09/25 00:15:35;;;;;;;14.53;13.23;;;13.50;99.90;;;;;;5066770;28;20453;-82
2022/09/25 00:18:02;;;;;;;15.13;13.63;;;13.50;99.90;;;;;;5067273;28;20462;-82
2022/09/25 00:20:29;;;;;;;15.43;13.87;;;13.50;99.90;;;;;;5056812;28;20448;-82
2022/09/25 00:22:57;;;;;;;15.50;14.00;;;13.50;99.90;;;;;;5060272;28;20487;-82
2022/09/25 00:25:26;;;;;;;14.27;12.87;;;13.50;99.90;;;;;;5073862;28;20453;-82
2022/09/25 00:27:53;;;;;;;16.20;14.67;;;13.50;99.90;;;;;;5068012;28;20520;-82
2022/09/25 00:30:20;;;;;;;13.87;12.50;;;13.50;99.90;;;;;;5074309;28;20456;-82
2022/09/25 00:32:47;;;;;;;14.10;12.80;;;13.40;99.90;;;;;;5072454;28;20468;-82
2022/09/25 00:35:13;;;;;;;14.87;13.37;;;13.40;99.90;;;;;;5073303;28;20448;-82
2022/09/25 00:37:41;;;;;;;16.33;14.80;;;13.40;99.90;;;;;;5062043;28;20476;-82
2022/09/25 00:40:09;;;;;;;15.40;13.40;;;13.40;99.90;;;;;;5053285;28;20485;-83
2022/09/25 00:42:36;;;;;;;14.60;13.40;;;13.40;99.90;;;;;;5048931;28;20483;-83
2022/09/25 00:45:04;;;;;;;14.03;12.73;;;13.40;99.90;;;;;;5059703;28;20456;-82
2022/09/25 00:47:43;;;;;;;13.43;12.10;;;13.50;99.90;;;;;;5050990;28;20449;-83
2022/09/25 00:50:26;;;;;;;14.83;13.30;;;13.50;99.90;;;;;;5042313;28;20476;-83
2022/09/25 00:52:57;;;;;;;12.57;11.47;;;13.40;99.90;;;;;;5068199;28;20454;-79
2022/09/25 00:55:24;;;;;;;13.80;12.63;;;13.40;99.90;;;;;;5052471;28;20441;-83
2022/09/25 00:57:55;;;;;;;13.30;11.90;;;13.40;99.90;;;;;;5050117;28;20461;-83
2022/09/25 01:00:22;;;;;;;13.83;12.40;;;13.40;99.90;;;;;;5048699;28;20469;-83
2022/09/25 01:02:53;;;;;;;15.80;14.40;;;13.40;99.90;;;;;;5046508;28;20468;-83
2022/09/25 01:05:25;;;;;;;15.23;13.83;;;13.40;99.90;;;;;;5060025;28;20857;-84
2022/09/25 01:07:56;;;;;;;14.40;13.03;;;13.40;99.90;;;;;;5048473;28;20459;-83
2022/09/25 01:10:23;;;;;;;14.87;13.50;;;13.40;99.90;;;;;;5040257;28;20489;-84
2022/09/25 01:12:51;;;;;;;15.17;13.87;;;13.40;99.90;;;;;;5057890;28;20468;-83
2022/09/25 01:15:20;;;;;;;16.00;13.53;;;13.40;99.90;;;;;;5044821;28;20472;-83
2022/09/25 01:17:57;;;;;;;18.33;16.70;;;13.40;99.90;;;;;;5049193;28;20460;-83
2022/09/25 01:20:40;;;;;;;16.90;15.33;;;13.40;99.90;;;;;;5059713;28;21201;-84
2022/09/25 01:23:20;;;;;;;17.10;15.40;;;13.40;99.90;;;;;;5045089;28;20475;-84
2022/09/25 01:26:04;;;;;;;16.20;14.67;;;13.40;99.90;;;;;;5042993;28;20453;-84
2022/09/25 01:28:53;;;;;;;18.70;16.90;;;13.40;99.90;;;;;;5054450;28;20455;-82
2022/09/25 01:31:26;;;;;;;15.70;14.30;;;13.40;99.90;;;;;;5019861;28;20454;-84
2022/09/25 01:33:58;;;;;;;16.23;14.57;;;13.40;99.90;;;;;;5055411;28;20480;-83
2022/09/25 01:36:29;;;;;;;17.70;15.93;;;13.50;99.90;;;;;;5040803;28;20453;-82
2022/09/25 01:39:03;;;;;;;17.83;16.13;;;13.50;99.90;;;;;;5051392;28;20562;-82
2022/09/25 01:41:35;;;;;;;16.63;14.97;;;13.50;99.90;;;;;;5051077;28;20952;-83
2022/09/25 01:44:08;;;;;;;18.50;16.53;;;13.50;99.90;;;;;;5034611;28;20932;-82
2022/09/25 01:46:42;;;;;;;16.30;14.83;;;13.40;99.90;;;;;;5036241;28;20448;-82
2022/09/25 01:49:13;;;;;;;17.23;15.43;;;13.40;99.90;;;;;;5048054;28;20454;-81
2022/09/25 01:51:44;;;;;;;19.77;17.53;;;13.20;99.90;;;;;;5038337;28;20457;-82
2022/09/25 01:54:15;;;;;;;19.43;16.50;;;13.00;99.90;;;;;;5054108;28;20475;-82
2022/09/25 01:56:46;;;;;;;18.83;16.90;;;13.00;99.90;;;;;;5050625;28;20455;-82
2022/09/25 01:59:19;;;;;;;19.30;15.73;;;13.10;99.90;;;;;;5026433;28;20486;-82
2022/09/25 02:01:47;;;;;;;18.13;15.87;;;13.10;99.90;;;;;;5036063;28;20453;-82
2022/09/25 02:04:18;;;;;;;20.57;16.00;;;13.10;99.90;;;;;;5053642;28;20473;-82
2022/09/25 02:06:48;;;;;;;22.87;18.20;;;13.20;99.90;;;;;;5038908;28;20484;-81
2022/09/25 02:09:22;;;;;;;19.70;15.60;;;13.20;99.90;;;;;;5014521;28;20446;-81
2022/09/25 02:11:54;;;;;;;20.40;16.80;;;13.20;99.90;;;;;;5043107;28;20452;-82
2022/09/25 02:14:27;;;;;;;21.27;16.73;;;13.30;99.90;;;;;;5048442;28;21029;-82
2022/09/25 02:16:58;;;;;;;20.80;16.97;;;13.30;99.90;;;;;;5052556;28;20800;-82
2022/09/25 02:22:14;;;;;;;19.07;16.87;;;13.40;99.90;;;;;;5043946;28;20519;-81
2022/09/25 02:24:47;;;;;;;19.43;16.90;;;13.40;99.90;;;;;;5041353;28;20449;-82
2022/09/25 02:27:15;;;;;;;20.60;16.60;;;13.40;99.90;;;;;;5033325;28;20453;-81
2022/09/25 02:29:43;;;;;;;19.53;15.63;;;13.50;99.90;;;;;;5033398;28;20456;-82
2022/09/25 02:32:12;;;;;;;17.60;14.77;;;13.50;99.90;;;;;;5052518;28;20453;-82
2022/09/25 02:34:40;;;;;;;20.87;16.90;;;13.50;99.90;;;;;;5051613;28;20452;-80
2022/09/25 02:37:10;;;;;;;18.93;16.80;;;13.50;99.90;;;;;;5040542;28;20454;-81
2022/09/25 02:39:37;;;;;;;20.30;17.20;;;13.60;99.90;;;;;;5043446;28;20476;-81
2022/09/25 02:42:15;;;;;;;18.50;15.33;;;13.60;99.90;;;;;;5040862;28;20945;-82
2022/09/25 02:44:57;;;;;;;18.90;15.77;;;13.60;99.90;;;;;;5038121;28;20452;-82
2022/09/25 02:47:34;;;;;;;18.57;16.50;;;13.50;99.90;;;;;;5040013;28;20954;-81
2022/09/25 02:50:07;;;;;;;18.23;16.40;;;13.50;99.90;;;;;;5037489;28;20448;-82
2022/09/25 02:52:41;;;;;;;19.43;15.60;;;13.60;99.90;;;;;;5041157;28;20482;-81
2022/09/25 02:55:15;;;;;;;21.53;17.37;;;13.50;99.90;;;;;;5041170;28;20453;-82
2022/09/25 02:57:47;;;;;;;17.20;15.33;;;13.60;99.90;;;;;;5044679;28;20460;-82
2022/09/25 03:00:16;;;;;;;18.33;15.67;;;13.60;99.90;;;;;;5037621;28;20484;-83
2022/09/25 03:02:45;;;;;;;20.00;16.43;;;13.60;99.90;;;;;;5045153;28;20472;-82
2022/09/25 03:05:14;;;;;;;20.10;18.00;;;13.70;99.90;;;;;;5042022;28;20452;-82
2022/09/25 03:10:28;;;;;;;18.20;14.37;;;13.70;99.90;;;;;;5042370;28;20949;-80
2022/09/25 03:12:54;;;;;;;21.57;16.67;;;13.70;99.90;;;;;;5036226;28;20881;-82
2022/09/25 03:15:24;;;;;;;22.47;17.23;;;13.70;99.90;;;;;;5047693;28;20454;-81
2022/09/25 03:17:51;;;;;;;24.17;19.60;;;13.70;99.90;;;;;;5038134;28;20453;-81
2022/09/25 03:20:17;;;;;;;20.87;18.27;;;13.70;99.90;;;;;;5034877;28;20493;-82
2022/09/25 03:22:44;;;;;;;19.43;15.40;;;13.70;99.90;;;;;;5045058;28;20473;-82
2022/09/25 03:25:11;;;;;;;20.70;16.00;;;13.60;99.90;;;;;;5043009;28;20456;-81
2022/09/25 03:27:38;;;;;;;20.00;17.10;;;13.60;99.90;;;;;;5040980;28;20870;-81
2022/09/25 03:30:05;;;;;;;23.37;18.63;;;13.60;99.90;;;;;;5038338;28;20449;-82
2022/09/25 03:32:33;;;;;;;23.70;17.60;;;13.60;99.90;;;;;;5043478;28;20932;-81
2022/09/25 03:35:00;;;;;;;18.47;15.70;;;13.60;99.90;;;;;;5041081;28;20448;-81
2022/09/25 03:37:26;;;;;;;22.30;17.00;;;13.60;99.90;;;;;;5042931;28;20445;-80
2022/09/25 03:39:53;;;;;;;19.17;15.50;;;13.60;99.90;;;;;;5043915;28;20479;-81
2022/09/25 03:42:20;;;;;;;21.97;16.57;;;13.60;99.90;;;;;;5047611;28;20472;-80
2022/09/25 03:44:47;;;;;;;20.17;17.93;;;13.60;99.90;;;;;;5047467;28;20498;-81
2022/09/25 03:47:13;;;;;;;19.43;17.07;;;13.60;99.90;;;;;;5048791;28;20454;-82
2022/09/25 03:49:41;;;;;;;16.77;14.97;;;13.60;99.90;;;;;;5042830;28;20445;-81
2022/09/25 03:52:13;;;;;;;24.20;17.30;;;13.60;99.90;;;;;;5042000;28;20466;-81
2022/09/25 03:54:40;;;;;;;20.80;17.37;;;13.60;99.90;;;;;;5048127;28;20445;-81
2022/09/25 03:57:07;;;;;;;22.00;17.43;;;13.70;99.90;;;;;;5046702;28;20823;-81
2022/09/25 03:59:33;;;;;;;20.53;17.60;;;13.70;99.90;;;;;;5051434;28;20492;-82
2022/09/25 04:02:01;;;;;;;23.80;18.37;;;13.70;99.90;;;;;;5052763;28;20459;-82
2022/09/25 04:04:28;;;;;;;20.50;16.20;;;13.70;99.90;;;;;;5035933;28;20459;-81
2022/09/25 04:06:56;;;;;;;21.40;16.10;;;13.70;99.90;;;;;;5035376;28;21040;-82
2022/09/25 04:09:23;;;;;;;22.03;18.30;;;13.70;99.90;;;;;;5053811;28;20456;-80
2022/09/25 04:11:50;;;;;;;29.17;19.70;;;13.70;99.90;;;;;;5047023;28;20449;-81
2022/09/25 04:14:17;;;;;;;19.43;17.37;;;13.70;99.90;;;;;;5035472;28;20506;-80
2022/09/25 04:16:45;;;;;;;18.30;16.50;;;13.70;99.90;;;;;;5050021;28;20452;-82
2022/09/25 04:19:12;;;;;;;19.53;17.17;;;13.70;99.90;;;;;;5037245;28;20551;-82
2022/09/25 04:21:39;;;;;;;48.43;21.40;;;13.70;99.90;;;;;;5049045;28;20445;-81
2022/09/25 04:26:53;;;;;;;19.23;16.77;;;13.70;99.90;;;;;;5043271;28;20472;-81
2022/09/25 04:29:23;;;;;;;19.87;15.97;;;13.60;99.90;;;;;;5049452;28;20461;-80
2022/09/25 04:33:44;;;;;;;25.90;19.07;;;13.60;99.90;;;;;;5036203;28;20539;-81
2022/09/25 04:34:35;;;;;;;20.40;15.50;;;13.60;99.90;;;;;;5014704;28;20442;-80
2022/09/25 04:37:02;;;;;;;17.60;15.53;;;13.60;99.90;;;;;;5030310;28;20449;-80
2022/09/25 04:39:30;;;;;;;22.97;18.67;;;13.60;99.90;;;;;;5034943;28;20711;-79
2022/09/25 04:41:59;;;;;;;19.90;16.53;;;13.60;99.90;;;;;;5041627;28;20459;-79
2022/09/25 04:44:26;;;;;;;23.30;18.23;;;13.60;99.90;;;;;;5054139;28;20949;-79
2022/09/25 04:46:53;;;;;;;20.40;16.70;;;13.60;99.90;;;;;;5050026;28;20457;-79
2022/09/25 04:49:20;;;;;;;19.63;16.50;;;13.60;99.90;;;;;;5050891;28;20475;-82
2022/09/25 04:51:46;;;;;;;21.80;17.43;;;13.60;99.90;;;;;;5039279;28;20454;-79
2022/09/25 04:54:15;;;;;;;23.70;18.83;;;13.60;99.90;;;;;;5053070;28;20807;-79
2022/09/25 04:56:44;;;;;;;22.60;18.27;;;13.60;99.90;;;;;;5040065;28;20547;-79
2022/09/25 04:59:11;;;;;;;21.97;18.90;;;13.60;99.90;;;;;;5035499;28;20449;-79
2022/09/25 05:01:38;;;;;;;21.07;17.87;;;13.60;99.90;;;;;;5037964;28;20513;-81
2022/09/25 05:04:05;;;;;;;24.03;18.37;;;13.60;99.90;;;;;;5037531;28;20506;-79
2022/09/25 05:06:32;;;;;;;20.53;15.43;;;13.60;99.90;;;;;;5053772;28;20455;-79
2022/09/25 05:08:58;;;;;;;20.13;14.93;;;13.60;99.90;;;;;;5053514;28;20451;-79
2022/09/25 05:11:25;;;;;;;19.03;14.50;;;13.60;99.90;;;;;;5045666;28;20947;-79
2022/09/25 05:13:53;;;;;;;18.30;15.63;;;13.50;99.90;;;;;;5033898;28;20478;-79
2022/09/25 05:16:20;;;;;;;16.07;12.23;;;13.50;99.90;;;;;;5034436;28;20465;-79
2022/09/25 05:18:47;;;;;;;22.97;15.13;;;13.50;99.90;;;;;;5045402;28;20829;-79
2022/09/25 05:21:14;;;;;;;18.50;15.10;;;13.50;99.90;;;;;;5053336;28;20492;-79
2022/09/25 05:23:40;;;;;;;18.37;14.27;;;13.40;99.90;;;;;;5053612;28;20500;-80
2022/09/25 05:26:08;;;;;;;16.30;13.43;;;13.40;99.90;;;;;;5052724;28;20969;-79
2022/09/25 05:28:34;;;;;;;16.30;13.97;;;13.40;99.90;;;;;;5048643;28;20503;-81
2022/09/25 05:31:03;;;;;;;18.07;12.57;;;13.40;99.90;;;;;;5052811;28;20488;-79
2022/09/25 05:33:30;;;;;;;15.60;12.77;;;13.40;99.90;;;;;;5047049;28;20476;-79
2022/09/25 05:36:01;;;;;;;21.60;15.07;;;13.30;99.90;;;;;;5036645;28;20460;-79
2022/09/25 05:38:28;;;;;;;20.20;16.50;;;13.40;99.90;;;;;;5036177;28;20477;-79
2022/09/25 05:40:55;;;;;;;22.97;17.50;;;13.30;99.90;;;;;;5041705;28;20476;-80
2022/09/25 05:43:24;;;;;;;23.60;18.47;;;13.40;99.90;;;;;;5033845;28;20485;-79
2022/09/25 05:45:54;;;;;;;18.90;15.23;;;13.30;99.90;;;;;;5034276;28;20966;-79
2022/09/25 05:48:22;;;;;;;30.33;23.37;;;13.40;99.90;;;;;;5041799;28;20904;-79
2022/09/25 05:50:52;;;;;;;26.50;18.70;;;13.30;99.90;;;;;;5052550;28;20954;-79
2022/09/25 05:53:18;;;;;;;24.80;17.13;;;13.30;99.90;;;;;;5034298;28;20477;-79
2022/09/25 05:55:49;;;;;;;27.73;17.77;;;13.40;99.90;;;;;;5033035;28;20457;-78
2022/09/25 05:58:16;;;;;;;24.93;16.97;;;13.40;99.90;;;;;;5039471;28;20439;-79
2022/09/25 06:00:43;;;;;;;25.60;19.37;;;13.40;99.90;;;;;;5052440;28;20491;-79
2022/09/25 06:03:10;;;;;;;22.57;17.33;;;13.50;99.90;;;;;;5038911;28;20480;-79
2022/09/25 06:05:39;;;;;;;23.33;18.53;;;13.50;99.90;;;;;;5046591;28;20950;-79
2022/09/25 06:08:06;;;;;;;22.03;17.50;;;13.60;99.90;;;;;;5040167;28;20449;-79
2022/09/25 06:10:32;;;;;;;23.20;16.43;;;13.60;99.90;;;;;;5052392;28;20511;-79
2022/09/25 06:13:00;;;;;;;19.53;17.10;;;13.60;99.90;;;;;;5036764;28;20480;-79
2022/09/25 06:15:28;;;;;;;24.47;17.10;;;13.70;99.90;;;;;;5032862;28;20815;-79
2022/09/25 06:17:54;;;;;;;23.60;17.60;;;13.70;99.90;;;;;;5046777;28;20452;-79
2022/09/25 06:20:21;;;;;;;24.00;16.60;;;13.80;99.90;;;;;;5032957;28;20518;-79
2022/09/25 06:22:53;;;;;;;33.20;19.80;;;13.80;99.90;;;;;;5033581;28;20505;-80
2022/09/25 06:25:20;;;;;;;19.43;14.90;;;13.70;99.90;;;;;;5043585;28;20815;-80
2022/09/25 06:27:47;;;;;;;18.80;15.70;;;13.70;99.90;;;;;;5046036;28;20459;-79
2022/09/25 06:30:14;;;;;;;17.33;13.70;;;13.80;99.90;;;;;;5032473;28;20452;-79
2022/09/25 06:32:41;;;;;;;18.43;14.03;;;13.80;99.90;;;;;;5041753;28;21013;-79
2022/09/25 06:35:08;;;;;;;16.17;12.57;;;13.80;99.90;;;;;;5043725;28;20449;-79
2022/09/25 06:37:35;;;;;;;12.13;10.93;;;13.90;99.90;;;;;;5032238;28;20456;-80
2022/09/25 06:40:04;;;;;;;11.90;10.70;;;13.90;99.90;;;;;;5032821;28;20950;-79
2022/09/25 06:42:33;;;;;;;12.77;11.40;;;13.90;99.90;;;;;;5033165;28;20544;-79
2022/09/25 06:45:00;;;;;;;15.67;10.00;;;13.90;99.90;;;;;;5032726;28;20841;-79
2022/09/25 06:47:27;;;;;;;12.27;10.43;;;14.00;99.90;;;;;;5042964;28;20456;-79
2022/09/25 06:49:54;;;;;;;15.13;12.27;;;14.00;99.90;;;;;;5043414;28;20457;-79
2022/09/25 06:52:20;;;;;;;12.30;10.73;;;14.00;99.90;;;;;;5046384;28;20986;-79
2022/09/25 06:54:47;;;;;;;13.13;11.73;;;14.00;99.90;;;;;;5032523;28;20469;-81
2022/09/25 06:57:15;;;;;;;12.27;10.60;;;14.00;99.90;;;;;;5041251;28;20460;-79
2022/09/25 06:59:42;;;;;;;14.00;11.20;;;14.00;99.90;;;;;;5037801;28;20454;-80
2022/09/25 07:04:50;;;;;;;13.57;11.13;;;13.80;99.90;;;;;;5041946;28;20444;-80
2022/09/25 07:07:19;;;;;;;13.03;11.67;;;13.80;99.90;;;;;;5043737;28;20452;-80
2022/09/25 07:09:47;;;;;;;16.93;11.87;;;13.90;99.90;;;;;;5053875;28;20444;-80
2022/09/25 07:12:16;;;;;;;16.07;12.00;;;14.00;99.90;;;;;;5054637;28;20446;-80
2022/09/25 07:14:45;;;;;;;14.83;10.90;;;14.00;99.90;;;;;;5058502;28;20486;-79
2022/09/25 07:17:12;;;;;;;16.90;12.73;;;13.90;99.90;;;;;;5047919;28;20885;-80
2022/09/25 07:19:39;;;;;;;14.43;12.97;;;13.90;99.90;;;;;;5038601;28;20807;-80
2022/09/25 07:22:06;;;;;;;15.53;11.87;;;13.90;99.90;;;;;;5055248;28;20480;-80
2022/09/25 07:24:32;;;;;;;13.43;11.00;;;13.90;99.90;;;;;;5058615;28;20462;-80
2022/09/25 07:26:59;;;;;;;19.30;14.70;;;14.10;99.90;;;;;;5051215;28;20448;-79
2022/09/25 07:29:27;;;;;;;14.40;12.80;;;14.10;99.90;;;;;;5059127;28;20452;-79
2022/09/25 07:31:54;;;;;;;16.70;12.63;;;14.10;99.90;;;;;;5046002;28;20458;-81
2022/09/25 07:34:21;;;;;;;16.90;13.03;;;14.20;99.90;;;;;;5050507;28;20827;-80
2022/09/25 07:36:51;;;;;;;14.37;12.90;;;14.30;99.90;;;;;;5054848;28;20444;-80
2022/09/25 07:39:18;;;;;;;13.77;12.17;;;14.30;99.90;;;;;;5058742;28;20499;-80
2022/09/25 07:41:45;;;;;;;14.00;12.60;;;14.40;99.90;;;;;;5044509;28;20521;-80
2022/09/25 07:44:11;;;;;;;11.97;10.80;;;14.40;99.90;;;;;;5038438;28;21065;-80
2022/09/25 07:46:43;;;;;;;15.33;11.60;;;14.50;99.90;;;;;;5047218;28;20455;-80
2022/09/25 07:49:09;;;;;;;13.90;12.73;;;14.60;99.90;;;;;;5058324;28;20453;-80
2022/09/25 07:51:36;;;;;;;12.90;11.60;;;14.70;99.90;;;;;;5050397;28;20450;-79
2022/09/25 07:54:03;;;;;;;12.97;11.20;;;14.80;99.90;;;;;;5038545;28;20477;-80
2022/09/25 07:56:30;;;;;;;12.50;11.20;;;14.70;99.90;;;;;;5038270;28;20479;-79
2022/09/25 07:58:56;;;;;;;13.33;10.87;;;14.80;99.90;;;;;;5036513;28;20445;-79
2022/09/25 08:01:23;;;;;;;13.23;10.30;;;14.90;99.90;;;;;;5044440;28;21043;-81
2022/09/25 08:03:51;;;;;;;15.43;11.50;;;14.90;99.90;;;;;;5057199;28;20473;-81
2022/09/25 08:06:18;;;;;;;12.67;11.20;;;15.00;99.90;;;;;;5049455;28;20939;-81
2022/09/25 08:08:44;;;;;;;12.83;11.20;;;15.00;99.90;;;;;;5037602;28;20468;-81
2022/09/25 08:11:13;;;;;;;12.73;10.60;;;15.00;99.90;;;;;;5040943;28;20854;-83
2022/09/25 08:13:41;;;;;;;11.43;10.10;;;15.10;99.90;;;;;;5040952;28;20557;-81
2022/09/25 08:16:11;;;;;;;11.23;10.20;;;15.10;99.90;;;;;;5045855;28;20448;-82
2022/09/25 08:18:40;;;;;;;12.60;11.40;;;15.20;99.90;;;;;;5046372;28;20501;-80
2022/09/25 08:21:09;;;;;;;12.27;11.10;;;15.30;99.90;;;;;;5036991;28;20469;-79
2022/09/25 08:23:36;;;;;;;10.63;9.53;;;15.30;99.90;;;;;;5044832;28;20472;-81
2022/09/25 08:26:03;;;;;;;12.30;11.10;;;15.40;99.90;;;;;;5049043;28;20474;-79
2022/09/25 08:28:30;;;;;;;11.60;10.53;;;15.50;99.90;;;;;;5054383;28;20453;-81
2022/09/25 08:30:58;;;;;;;11.40;10.30;;;15.60;99.90;;;;;;5061093;28;20446;-80
2022/09/25 08:33:25;;;;;;;10.17;9.17;;;15.60;99.90;;;;;;5050890;28;20476;-80
2022/09/25 08:35:56;;;;;;;9.93;8.93;;;15.80;99.90;;;;;;5051331;28;20452;-81
2022/09/25 08:38:25;;;;;;;10.33;9.23;;;15.90;99.90;;;;;;5045693;28;20457;-80
2022/09/25 08:40:56;;;;;;;11.10;9.70;;;15.90;99.90;;;;;;5055505;28;20577;-80
2022/09/25 08:43:24;;;;;;;10.00;9.00;;;16.10;99.90;;;;;;5049727;28;20471;-81
2022/09/25 08:51:29;;;;;;;9.20;8.30;;;16.20;99.90;;;;;;5040982;28;20443;-79
2022/09/25 08:53:58;;;;;;;10.47;9.57;;;16.30;99.90;;;;;;5045970;28;20473;-80
2022/09/25 08:56:28;;;;;;;8.27;7.57;;;16.40;99.90;;;;;;5066933;28;20457;-81
2022/09/25 08:59:03;;;;;;;8.87;8.00;;;16.40;99.90;;;;;;5067376;28;20452;-80
2022/09/25 09:01:41;;;;;;;11.77;8.97;;;16.50;99.90;;;;;;5052706;28;20481;-80
2022/09/25 09:04:18;;;;;;;8.63;7.73;;;16.40;99.90;;;;;;5055488;28;20901;-81
2022/09/25 09:06:46;;;;;;;10.73;9.73;;;16.30;99.90;;;;;;5071032;28;20453;-80
2022/09/25 09:09:18;;;;;;;9.10;8.30;;;16.40;99.90;;;;;;5069723;28;20450;-81
2022/09/25 09:11:51;;;;;;;9.03;8.13;;;16.50;99.90;;;;;;5050437;28;20458;-81
2022/09/25 09:14:21;;;;;;;8.73;8.03;;;16.50;99.90;;;;;;5056485;28;20476;-80
2022/09/25 09:16:55;;;;;;;8.33;7.53;;;16.60;99.90;;;;;;5066561;28;20450;-80
2022/09/25 09:19:22;;;;;;;8.80;8.10;;;16.60;99.90;;;;;;5069562;28;20453;-81
2022/09/25 09:21:56;;;;;;;7.90;7.20;;;16.70;99.90;;;;;;5066706;28;20474;-81
2022/09/25 09:24:31;;;;;;;6.97;6.37;;;16.70;99.90;;;;;;5050910;28;20480;-81
2022/09/25 09:27:14;;;;;;;8.00;7.30;;;16.90;99.90;;;;;;5055430;28;20831;-80
2022/09/25 09:29:51;;;;;;;8.07;6.77;;;16.90;99.90;;;;;;5068878;28;20455;-81
2022/09/25 09:32:44;;;;;;;8.03;7.23;;;16.90;99.90;;;;;;5051366;28;20499;-81
2022/09/25 09:35:21;;;;;;;8.53;7.83;;;16.90;99.90;;;;;;5047014;28;20461;-81
2022/09/25 09:37:58;;;;;;;8.10;7.50;;;17.00;99.90;;;;;;5020858;28;20969;-82
2022/09/25 09:40:42;;;;;;;8.00;7.40;;;17.20;99.90;;;;;;5020327;28;20464;-79
2022/09/25 09:43:18;;;;;;;7.17;6.57;;;17.30;99.90;;;;;;5025277;28;20465;-79
2022/09/25 09:45:51;;;;;;;8.00;7.20;;;17.30;99.90;;;;;;5030564;28;20445;-79
2022/09/25 09:48:27;;;;;;;6.97;6.27;;;17.40;99.90;;;;;;5066173;28;20451;-79
2022/09/25 09:51:00;;;;;;;6.67;6.07;;;17.40;99.90;;;;;;5063843;28;20462;-79
2022/09/25 09:53:32;;;;;;;8.47;7.80;;;17.40;99.90;;;;;;5046608;28;20464;-79
2022/09/25 09:56:03;;;;;;;7.83;7.13;;;17.40;99.90;;;;;;5048661;28;20523;-79
2022/09/25 09:58:37;;;;;;;8.00;7.30;;;17.50;99.90;;;;;;5064674;28;20451;-79
2022/09/25 10:01:04;;;;;;;7.20;6.50;;;17.50;99.90;;;;;;5051907;28;20528;-79
2022/09/25 10:03:38;;;;;;;7.40;6.60;;;17.30;99.90;;;;;;5044337;28;20476;-78
2022/09/25 10:06:09;;;;;;;8.00;7.30;;;17.30;99.90;;;;;;5058447;28;20470;-79
2022/09/25 10:08:36;;;;;;;7.47;6.83;;;17.00;99.90;;;;;;5064731;28;20447;-79
2022/09/25 10:11:13;;;;;;;7.90;7.20;;;16.90;99.90;;;;;;5054847;28;20470;-80
2022/09/25 10:13:41;;;;;;;6.70;6.20;;;16.80;99.90;;;;;;5047911;28;20482;-79
2022/09/25 10:16:11;;;;;;;8.07;7.30;;;16.60;99.90;;;;;;5059382;28;20486;-79
2022/09/25 10:18:43;;;;;;;8.80;7.23;;;16.40;99.90;;;;;;5065545;28;20449;-79
2022/09/25 10:21:15;;;;;;;8.10;7.33;;;16.40;99.90;;;;;;5055817;28;20465;-79
2022/09/25 10:23:49;;;;;;;7.17;6.60;;;16.50;99.90;;;;;;5045837;28;20503;-80
2022/09/25 10:26:28;;;;;;;7.80;7.13;;;16.50;99.90;;;;;;5052461;28;20500;-79
2022/09/25 10:28:56;;;;;;;7.13;6.53;;;16.60;99.90;;;;;;5052413;28;20466;-79
2022/09/25 10:31:25;;;;;;;6.27;5.73;;;16.80;99.90;;;;;;5053738;28;20454;-79
2022/09/25 10:34:03;;;;;;;6.93;6.33;;;17.00;99.90;;;;;;5045527;28;20989;-80
2022/09/25 10:36:39;;;;;;;7.30;6.70;;;17.10;99.90;;;;;;5046570;28;20497;-79
2022/09/25 10:39:24;;;;;;;8.97;8.13;;;17.20;99.90;;;;;;5050326;28;20453;-80
2022/09/25 10:41:52;;;;;;;7.20;6.60;;;17.30;99.90;;;;;;5053459;28;20489;-79
2022/09/25 10:44:22;;;;;;;8.23;7.50;;;17.30;99.90;;;;;;5053659;28;20478;-80
2022/09/25 10:52:48;;;;;;;7.03;6.43;;;16.90;99.90;;;;;;5048227;28;20467;-80
2022/09/25 10:55:24;;;;;;;8.30;7.57;;;16.80;99.90;;;;;;5055044;28;20571;-79
2022/09/25 10:57:59;;;;;;;13.30;11.97;;;16.50;99.90;;;;;;5061556;28;20453;-78
2022/09/25 11:00:26;;;;;;;7.87;7.17;;;16.40;99.90;;;;;;5063729;28;20469;-80
2022/09/25 11:02:57;;;;;;;7.40;6.73;;;16.30;99.90;;;;;;5063781;28;20488;-80
2022/09/25 11:05:28;;;;;;;11.00;9.80;;;16.20;99.90;;;;;;5057286;28;20546;-80
2022/09/25 11:07:57;;;;;;;10.20;9.20;;;16.00;99.90;;;;;;5063103;28;20446;-80
2022/09/25 11:10:27;;;;;;;9.07;7.80;;;15.80;99.90;;;;;;5064539;28;20455;-80
2022/09/25 11:12:56;;;;;;;8.20;7.40;;;15.60;99.90;;;;;;5054733;28;20988;-80
2022/09/25 11:15:26;;;;;;;11.80;10.70;;;15.60;99.90;;;;;;5046994;28;20452;-80
2022/09/25 11:17:54;;;;;;;8.83;7.83;;;15.60;99.90;;;;;;5051033;28;20444;-81
2022/09/25 11:20:28;;;;;;;8.77;7.87;;;15.60;99.90;;;;;;5051158;28;20456;-80
2022/09/25 11:23:05;;;;;;;11.40;9.13;;;15.60;99.90;;;;;;5049570;28;20977;-82
2022/09/25 11:25:41;;;;;;;9.20;8.43;;;15.60;99.90;;;;;;5051669;28;20449;-81
2022/09/25 11:28:15;;;;;;;9.73;8.97;;;15.40;99.90;;;;;;5048797;28;20451;-80
2022/09/25 11:30:50;;;;;;;10.90;9.80;;;15.40;99.90;;;;;;5047766;28;20464;-79
2022/09/25 11:33:24;;;;;;;11.93;10.30;;;15.30;99.90;;;;;;5048949;28;20477;-80
2022/09/25 11:35:54;;;;;;;10.43;9.40;;;15.20;99.90;;;;;;5052270;28;20468;-82
2022/09/25 11:41:21;;;;;;;11.93;10.83;;;15.30;99.90;;;;;;5042186;28;21002;-82
2022/09/25 11:44:05;;;;;;;12.50;11.20;;;15.10;99.90;;;;;;5039087;28;20481;-79
2022/09/25 11:46:40;;;;;;;11.97;10.80;;;15.10;99.90;;;;;;5046897;28;20453;-79
2022/09/25 11:49:17;;;;;;;11.20;10.07;;;15.00;99.90;;;;;;5044271;28;21105;-79
2022/09/25 11:52:08;;;;;;;11.87;10.10;;;15.00;99.90;;;;;;5036965;28;20449;-79
2022/09/25 11:54:48;;;;;;;11.77;10.73;;;14.90;99.90;;;;;;5042195;28;20427;-80
2022/09/25 11:57:21;;;;;;;12.40;10.80;;;14.90;99.90;;;;;;5052014;28;20467;-79
2022/09/25 12:00:03;;;;;;;14.73;13.40;;;14.90;99.90;;;;;;5047823;28;20456;-81
2022/09/25 12:02:40;;;;;;;14.57;13.10;;;14.80;99.90;;;;;;5049868;28;20498;-80
2022/09/25 12:05:21;;;;;;;14.00;12.53;;;14.80;99.90;;;;;;5051955;28;20925;-78
2022/09/25 12:08:06;;;;;;;15.27;13.67;;;14.80;99.90;;;;;;5053596;28;20481;-79
2022/09/25 12:10:43;;;;;;;16.40;14.80;;;14.70;99.90;;;;;;5052057;28;20445;-80
2022/09/25 12:13:17;;;;;;;15.93;13.33;;;14.70;99.90;;;;;;5056418;28;20476;-80
2022/09/25 12:15:59;;;;;;;18.43;16.67;;;14.80;99.90;;;;;;5055305;28;20549;-80
2022/09/25 12:18:54;;;;;;;17.13;15.40;;;14.80;99.90;;;;;;5056164;28;20461;-78
2022/09/25 12:21:24;;;;;;;20.33;18.20;;;14.80;99.90;;;;;;5054239;28;20531;-80
2022/09/25 12:23:58;;;;;;;19.30;17.37;;;15.00;99.90;;;;;;5058864;28;20480;-80
2022/09/25 12:26:31;;;;;;;18.70;16.13;;;15.00;99.90;;;;;;5059348;28;20468;-80
2022/09/25 12:29:11;;;;;;;18.63;16.87;;;15.10;99.90;;;;;;5057813;28;20442;-80
2022/09/25 12:31:52;;;;;;;17.27;14.90;;;15.30;99.90;;;;;;5055013;28;20858;-79
2022/09/25 12:34:31;;;;;;;17.13;15.40;;;15.40;99.90;;;;;;5070254;28;20472;-79
2022/09/25 12:37:14;;;;;;;16.53;14.90;;;15.60;99.90;;;;;;5070725;28;20460;-80
2022/09/25 12:39:44;;;;;;;14.37;12.97;;;16.00;99.90;;;;;;5070606;28;20450;-80
2022/09/25 12:42:16;;;;;;;14.60;13.10;;;16.50;99.90;;;;;;5066922;28;20874;-80
2022/09/25 12:44:49;;;;;;;15.23;13.83;;;17.00;99.90;;;;;;5057689;28;20459;-81
2022/09/25 12:47:32;;;;;;;15.87;14.27;;;17.30;99.90;;;;;;5044006;28;20444;-80
2022/09/25 12:50:03;;;;;;;15.77;14.27;;;17.50;99.90;;;;;;5052396;28;20446;-83
2022/09/25 12:52:36;;;;;;;14.50;13.10;;;17.70;99.90;;;;;;5050146;28;20543;-80
2022/09/25 12:55:06;;;;;;;17.17;14.37;;;17.70;99.90;;;;;;5044141;28;20482;-82
2022/09/25 12:57:39;;;;;;;17.20;14.33;;;17.60;99.90;;;;;;5040509;28;20971;-80
2022/09/25 13:00:15;;;;;;;15.70;14.10;;;17.60;99.90;;;;;;5054799;28;20463;-80
2022/09/25 13:02:52;;;;;;;16.87;15.17;;;17.50;99.90;;;;;;5061408;28;20494;-79
2022/09/25 13:05:23;;;;;;;14.03;12.60;;;17.50;99.90;;;;;;5047824;28;20482;-80
2022/09/25 13:07:55;;;;;;;15.07;13.77;;;17.50;99.90;;;;;;5041137;28;20820;-80
2022/09/25 13:10:27;;;;;;;15.77;14.40;;;17.60;99.90;;;;;;5057281;28;20465;-80
2022/09/25 13:12:57;;;;;;;14.03;12.67;;;17.50;99.90;;;;;;5062455;28;20998;-80